sensor_id;sensor_type;location;lat;lon;timestamp;P1;durP1;ratioP1;P2;durP2;ratioP2
67178;SDS011;54112;53.512;49.144;2022-07-05T00:02:03;21.60;;;19.85;;
67178;SDS011;54112;53.512;49.144;2022-07-05T00:04:29;22.75;;;21.08;;
67178;SDS011;54112;53.512;49.144;2022-07-05T00:06:55;22.73;;;21.02;;
67178;SDS011;54112;53.512;49.144;2022-07-05T00:12:05;24.27;;;22.80;;
67178;SDS011;54112;53.512;49.144;2022-07-05T00:14:31;19.42;;;17.88;;
67178;SDS011;54112;53.512;49.144;2022-07-05T00:16:57;22.48;;;20.73;;
67178;SDS011;54112;53.512;49.144;2022-07-05T00:19:23;24.35;;;22.60;;
67178;SDS011;54112;53.512;49.144;2022-07-05T00:21:48;23.65;;;21.73;;
67178;SDS011;54112;53.512;49.144;2022-07-05T00:24:14;25.27;;;23.55;;
67178;SDS011;54112;53.512;49.144;2022-07-05T00:26:40;24.65;;;22.92;;
67178;SDS011;54112;53.512;49.144;2022-07-05T00:29:06;20.85;;;19.67;;
67178;SDS011;54112;53.512;49.144;2022-07-05T00:31:32;22.45;;;21.08;;
67178;SDS011;54112;53.512;49.144;2022-07-05T00:33:59;18.35;;;17.15;;
67178;SDS011;54112;53.512;49.144;2022-07-05T00:36:25;20.02;;;18.15;;
67178;SDS011;54112;53.512;49.144;2022-07-05T00:38:51;20.05;;;18.52;;
67178;SDS011;54112;53.512;49.144;2022-07-05T00:41:17;24.77;;;23.08;;
67178;SDS011;54112;53.512;49.144;2022-07-05T00:43:55;22.73;;;21.05;;
67178;SDS011;54112;53.512;49.144;2022-07-05T00:46:21;23.65;;;21.70;;
67178;SDS011;54112;53.512;49.144;2022-07-05T00:48:47;26.05;;;24.27;;
67178;SDS011;54112;53.512;49.144;2022-07-05T00:51:13;25.23;;;23.67;;
67178;SDS011;54112;53.512;49.144;2022-07-05T00:53:39;25.35;;;23.58;;
67178;SDS011;54112;53.512;49.144;2022-07-05T00:56:05;21.35;;;19.92;;
67178;SDS011;54112;53.512;49.144;2022-07-05T00:58:32;26.02;;;24.38;;
67178;SDS011;54112;53.512;49.144;2022-07-05T01:00:59;26.73;;;24.88;;
67178;SDS011;54112;53.512;49.144;2022-07-05T01:03:27;23.30;;;21.80;;
67178;SDS011;54112;53.512;49.144;2022-07-05T01:05:53;27.42;;;25.83;;
67178;SDS011;54112;53.512;49.144;2022-07-05T01:08:19;25.98;;;24.48;;
67178;SDS011;54112;53.512;49.144;2022-07-05T01:10:46;28.60;;;27.05;;
67178;SDS011;54112;53.512;49.144;2022-07-05T01:13:13;29.98;;;27.92;;
67178;SDS011;54112;53.512;49.144;2022-07-05T01:15:39;33.80;;;31.77;;
67178;SDS011;54112;53.512;49.144;2022-07-05T01:18:06;24.80;;;23.20;;
67178;SDS011;54112;53.512;49.144;2022-07-05T01:20:33;25.88;;;24.45;;
67178;SDS011;54112;53.512;49.144;2022-07-05T01:22:59;25.08;;;23.25;;
67178;SDS011;54112;53.512;49.144;2022-07-05T01:25:27;31.45;;;29.55;;
67178;SDS011;54112;53.512;49.144;2022-07-05T01:27:54;30.45;;;28.85;;
67178;SDS011;54112;53.512;49.144;2022-07-05T01:30:21;24.48;;;22.90;;
67178;SDS011;54112;53.512;49.144;2022-07-05T01:32:47;31.30;;;29.65;;
67178;SDS011;54112;53.512;49.144;2022-07-05T01:35:13;28.58;;;26.40;;
67178;SDS011;54112;53.512;49.144;2022-07-05T01:37:40;31.20;;;29.38;;
67178;SDS011;54112;53.512;49.144;2022-07-05T01:40:06;30.33;;;28.63;;
67178;SDS011;54112;53.512;49.144;2022-07-05T01:42:32;25.33;;;24.02;;
67178;SDS011;54112;53.512;49.144;2022-07-05T01:44:58;31.30;;;29.75;;
67178;SDS011;54112;53.512;49.144;2022-07-05T01:47:24;25.67;;;23.77;;
67178;SDS011;54112;53.512;49.144;2022-07-05T01:49:51;27.83;;;26.52;;
67178;SDS011;54112;53.512;49.144;2022-07-05T01:52:19;30.27;;;28.48;;
67178;SDS011;54112;53.512;49.144;2022-07-05T01:54:45;29.40;;;27.00;;
67178;SDS011;54112;53.512;49.144;2022-07-05T01:57:11;28.42;;;26.63;;
67178;SDS011;54112;53.512;49.144;2022-07-05T01:59:37;29.40;;;27.27;;
67178;SDS011;54112;53.512;49.144;2022-07-05T02:02:04;28.10;;;26.02;;
67178;SDS011;54112;53.512;49.144;2022-07-05T02:04:30;27.00;;;25.60;;
67178;SDS011;54112;53.512;49.144;2022-07-05T02:06:56;25.13;;;23.52;;
67178;SDS011;54112;53.512;49.144;2022-07-05T02:09:22;27.17;;;25.63;;
67178;SDS011;54112;53.512;49.144;2022-07-05T02:11:48;26.48;;;24.73;;
67178;SDS011;54112;53.512;49.144;2022-07-05T02:14:14;30.42;;;28.10;;
67178;SDS011;54112;53.512;49.144;2022-07-05T02:16:40;28.10;;;25.65;;
67178;SDS011;54112;53.512;49.144;2022-07-05T02:19:06;25.20;;;23.88;;
67178;SDS011;54112;53.512;49.144;2022-07-05T02:21:32;26.88;;;25.55;;
67178;SDS011;54112;53.512;49.144;2022-07-05T02:23:58;25.77;;;24.52;;
67178;SDS011;54112;53.512;49.144;2022-07-05T02:26:24;23.55;;;21.88;;
67178;SDS011;54112;53.512;49.144;2022-07-05T02:28:49;26.50;;;24.65;;
67178;SDS011;54112;53.512;49.144;2022-07-05T02:31:15;27.38;;;25.20;;
67178;SDS011;54112;53.512;49.144;2022-07-05T02:33:42;25.02;;;23.75;;
67178;SDS011;54112;53.512;49.144;2022-07-05T02:36:08;23.52;;;22.48;;
67178;SDS011;54112;53.512;49.144;2022-07-05T02:38:35;21.33;;;20.33;;
67178;SDS011;54112;53.512;49.144;2022-07-05T02:41:03;24.73;;;23.35;;
67178;SDS011;54112;53.512;49.144;2022-07-05T02:43:29;27.50;;;25.40;;
67178;SDS011;54112;53.512;49.144;2022-07-05T02:45:55;26.17;;;24.45;;
67178;SDS011;54112;53.512;49.144;2022-07-05T02:48:21;26.60;;;25.05;;
67178;SDS011;54112;53.512;49.144;2022-07-05T02:50:47;23.23;;;21.60;;
67178;SDS011;54112;53.512;49.144;2022-07-05T02:53:13;20.15;;;18.90;;
67178;SDS011;54112;53.512;49.144;2022-07-05T02:55:39;26.40;;;24.83;;
67178;SDS011;54112;53.512;49.144;2022-07-05T02:58:05;27.90;;;25.80;;
67178;SDS011;54112;53.512;49.144;2022-07-05T03:00:31;25.70;;;24.02;;
67178;SDS011;54112;53.512;49.144;2022-07-05T03:02:57;24.75;;;23.23;;
67178;SDS011;54112;53.512;49.144;2022-07-05T03:05:23;24.50;;;22.75;;
67178;SDS011;54112;53.512;49.144;2022-07-05T03:07:48;25.48;;;24.05;;
67178;SDS011;54112;53.512;49.144;2022-07-05T03:10:14;20.08;;;18.75;;
67178;SDS011;54112;53.512;49.144;2022-07-05T03:12:40;19.40;;;18.15;;
67178;SDS011;54112;53.512;49.144;2022-07-05T03:15:06;21.52;;;19.90;;
67178;SDS011;54112;53.512;49.144;2022-07-05T03:17:32;26.45;;;24.92;;
67178;SDS011;54112;53.512;49.144;2022-07-05T03:19:58;24.77;;;22.73;;
67178;SDS011;54112;53.512;49.144;2022-07-05T03:22:24;26.20;;;24.73;;
67178;SDS011;54112;53.512;49.144;2022-07-05T03:24:49;26.63;;;25.17;;
67178;SDS011;54112;53.512;49.144;2022-07-05T03:27:15;24.33;;;22.70;;
67178;SDS011;54112;53.512;49.144;2022-07-05T03:29:41;23.45;;;22.00;;
67178;SDS011;54112;53.512;49.144;2022-07-05T03:32:07;25.05;;;23.17;;
67178;SDS011;54112;53.512;49.144;2022-07-05T03:34:33;27.88;;;25.33;;
67178;SDS011;54112;53.512;49.144;2022-07-05T03:36:59;25.70;;;24.02;;
67178;SDS011;54112;53.512;49.144;2022-07-05T03:39:25;21.55;;;20.08;;
67178;SDS011;54112;53.512;49.144;2022-07-05T03:41:51;22.13;;;20.83;;
67178;SDS011;54112;53.512;49.144;2022-07-05T03:44:17;21.55;;;20.35;;
67178;SDS011;54112;53.512;49.144;2022-07-05T03:46:43;25.55;;;23.75;;
67178;SDS011;54112;53.512;49.144;2022-07-05T03:49:09;22.88;;;21.58;;
67178;SDS011;54112;53.512;49.144;2022-07-05T03:51:34;30.02;;;27.48;;
67178;SDS011;54112;53.512;49.144;2022-07-05T03:54:00;26.98;;;25.10;;
67178;SDS011;54112;53.512;49.144;2022-07-05T03:56:26;20.88;;;19.65;;
67178;SDS011;54112;53.512;49.144;2022-07-05T03:58:52;29.23;;;27.30;;
67178;SDS011;54112;53.512;49.144;2022-07-05T04:01:18;28.92;;;26.67;;
67178;SDS011;54112;53.512;49.144;2022-07-05T04:03:45;22.80;;;21.10;;
67178;SDS011;54112;53.512;49.144;2022-07-05T04:06:10;28.92;;;27.48;;
67178;SDS011;54112;53.512;49.144;2022-07-05T04:08:36;22.95;;;21.45;;
67178;SDS011;54112;53.512;49.144;2022-07-05T04:11:02;27.73;;;26.13;;
67178;SDS011;54112;53.512;49.144;2022-07-05T04:13:28;25.90;;;24.10;;
67178;SDS011;54112;53.512;49.144;2022-07-05T04:15:54;27.85;;;26.17;;
67178;SDS011;54112;53.512;49.144;2022-07-05T04:18:21;23.33;;;21.77;;
67178;SDS011;54112;53.512;49.144;2022-07-05T04:20:47;26.58;;;24.30;;
67178;SDS011;54112;53.512;49.144;2022-07-05T04:23:13;27.35;;;25.08;;
67178;SDS011;54112;53.512;49.144;2022-07-05T04:25:39;27.10;;;25.27;;
67178;SDS011;54112;53.512;49.144;2022-07-05T04:28:05;23.70;;;22.52;;
67178;SDS011;54112;53.512;49.144;2022-07-05T04:30:31;22.88;;;21.48;;
67178;SDS011;54112;53.512;49.144;2022-07-05T04:32:57;25.75;;;24.48;;
67178;SDS011;54112;53.512;49.144;2022-07-05T04:35:24;27.02;;;25.05;;
67178;SDS011;54112;53.512;49.144;2022-07-05T04:38:10;25.98;;;24.02;;
67178;SDS011;54112;53.512;49.144;2022-07-05T04:40:36;24.98;;;23.27;;
67178;SDS011;54112;53.512;49.144;2022-07-05T04:43:02;26.98;;;25.70;;
67178;SDS011;54112;53.512;49.144;2022-07-05T04:45:28;25.27;;;23.70;;
67178;SDS011;54112;53.512;49.144;2022-07-05T04:47:54;30.38;;;28.33;;
67178;SDS011;54112;53.512;49.144;2022-07-05T04:50:19;24.02;;;22.27;;
67178;SDS011;54112;53.512;49.144;2022-07-05T04:52:45;30.42;;;28.85;;
67178;SDS011;54112;53.512;49.144;2022-07-05T04:55:11;29.25;;;27.63;;
67178;SDS011;54112;53.512;49.144;2022-07-05T04:57:37;30.40;;;29.10;;
67178;SDS011;54112;53.512;49.144;2022-07-05T05:00:03;32.05;;;29.63;;
67178;SDS011;54112;53.512;49.144;2022-07-05T05:02:29;25.23;;;23.08;;
67178;SDS011;54112;53.512;49.144;2022-07-05T05:04:55;28.70;;;26.90;;
67178;SDS011;54112;53.512;49.144;2022-07-05T05:07:24;28.42;;;26.73;;
67178;SDS011;54112;53.512;49.144;2022-07-05T05:09:49;23.80;;;22.60;;
67178;SDS011;54112;53.512;49.144;2022-07-05T05:12:15;25.63;;;24.02;;
67178;SDS011;54112;53.512;49.144;2022-07-05T05:14:41;30.92;;;29.23;;
67178;SDS011;54112;53.512;49.144;2022-07-05T05:17:07;30.67;;;28.70;;
67178;SDS011;54112;53.512;49.144;2022-07-05T05:19:33;29.42;;;27.50;;
67178;SDS011;54112;53.512;49.144;2022-07-05T05:21:59;27.80;;;25.90;;
67178;SDS011;54112;53.512;49.144;2022-07-05T05:24:25;32.33;;;30.23;;
67178;SDS011;54112;53.512;49.144;2022-07-05T05:26:51;30.83;;;29.10;;
67178;SDS011;54112;53.512;49.144;2022-07-05T05:29:17;27.80;;;26.33;;
67178;SDS011;54112;53.512;49.144;2022-07-05T05:31:43;29.77;;;27.52;;
67178;SDS011;54112;53.512;49.144;2022-07-05T05:34:09;28.45;;;26.17;;
67178;SDS011;54112;53.512;49.144;2022-07-05T05:36:35;30.42;;;28.13;;
67178;SDS011;54112;53.512;49.144;2022-07-05T05:39:02;32.83;;;30.80;;
67178;SDS011;54112;53.512;49.144;2022-07-05T05:41:28;29.20;;;26.92;;
67178;SDS011;54112;53.512;49.144;2022-07-05T05:43:53;30.50;;;28.90;;
67178;SDS011;54112;53.512;49.144;2022-07-05T05:46:19;25.48;;;24.15;;
67178;SDS011;54112;53.512;49.144;2022-07-05T05:48:45;26.25;;;24.92;;
67178;SDS011;54112;53.512;49.144;2022-07-05T05:51:14;29.35;;;27.95;;
67178;SDS011;54112;53.512;49.144;2022-07-05T05:53:49;31.52;;;29.85;;
67178;SDS011;54112;53.512;49.144;2022-07-05T05:56:17;30.42;;;29.02;;
67178;SDS011;54112;53.512;49.144;2022-07-05T05:58:43;24.20;;;22.70;;
67178;SDS011;54112;53.512;49.144;2022-07-05T06:01:08;26.17;;;24.77;;
67178;SDS011;54112;53.512;49.144;2022-07-05T06:03:36;33.42;;;31.60;;
67178;SDS011;54112;53.512;49.144;2022-07-05T06:06:02;25.05;;;23.58;;
67178;SDS011;54112;53.512;49.144;2022-07-05T06:08:28;32.33;;;30.83;;
67178;SDS011;54112;53.512;49.144;2022-07-05T06:10:55;32.28;;;30.45;;
67178;SDS011;54112;53.512;49.144;2022-07-05T06:13:21;33.90;;;32.45;;
67178;SDS011;54112;53.512;49.144;2022-07-05T06:15:47;29.50;;;27.83;;
67178;SDS011;54112;53.512;49.144;2022-07-05T06:18:13;29.98;;;28.10;;
67178;SDS011;54112;53.512;49.144;2022-07-05T06:20:39;36.55;;;33.83;;
67178;SDS011;54112;53.512;49.144;2022-07-05T06:23:06;33.35;;;31.45;;
67178;SDS011;54112;53.512;49.144;2022-07-05T06:25:32;24.95;;;23.48;;
67178;SDS011;54112;53.512;49.144;2022-07-05T06:28:00;26.00;;;24.67;;
67178;SDS011;54112;53.512;49.144;2022-07-05T06:30:26;25.88;;;24.38;;
67178;SDS011;54112;53.512;49.144;2022-07-05T06:32:53;27.80;;;26.00;;
67178;SDS011;54112;53.512;49.144;2022-07-05T06:35:19;35.42;;;33.00;;
67178;SDS011;54112;53.512;49.144;2022-07-05T06:37:49;35.30;;;33.40;;
67178;SDS011;54112;53.512;49.144;2022-07-05T06:40:21;27.05;;;25.25;;
67178;SDS011;54112;53.512;49.144;2022-07-05T06:42:48;29.52;;;27.60;;
67178;SDS011;54112;53.512;49.144;2022-07-05T06:45:14;35.30;;;33.10;;
67178;SDS011;54112;53.512;49.144;2022-07-05T06:47:39;29.83;;;28.33;;
67178;SDS011;54112;53.512;49.144;2022-07-05T06:50:05;29.70;;;28.25;;
67178;SDS011;54112;53.512;49.144;2022-07-05T06:52:32;32.35;;;30.58;;
67178;SDS011;54112;53.512;49.144;2022-07-05T06:54:58;29.25;;;27.30;;
67178;SDS011;54112;53.512;49.144;2022-07-05T06:57:24;32.63;;;30.95;;
67178;SDS011;54112;53.512;49.144;2022-07-05T06:59:51;36.03;;;33.65;;
67178;SDS011;54112;53.512;49.144;2022-07-05T07:02:17;34.92;;;32.88;;
67178;SDS011;54112;53.512;49.144;2022-07-05T07:04:45;32.65;;;30.88;;
67178;SDS011;54112;53.512;49.144;2022-07-05T07:07:11;33.85;;;32.28;;
67178;SDS011;54112;53.512;49.144;2022-07-05T07:09:58;35.00;;;32.75;;
67178;SDS011;54112;53.512;49.144;2022-07-05T07:12:24;26.42;;;24.83;;
67178;SDS011;54112;53.512;49.144;2022-07-05T07:14:50;33.90;;;32.15;;
67178;SDS011;54112;53.512;49.144;2022-07-05T07:17:16;34.13;;;32.20;;
67178;SDS011;54112;53.512;49.144;2022-07-05T07:19:42;27.35;;;26.05;;
67178;SDS011;54112;53.512;49.144;2022-07-05T07:22:08;24.40;;;23.00;;
67178;SDS011;54112;53.512;49.144;2022-07-05T07:24:34;35.17;;;33.08;;
67178;SDS011;54112;53.512;49.144;2022-07-05T07:27:00;36.45;;;34.05;;
67178;SDS011;54112;53.512;49.144;2022-07-05T07:29:29;33.15;;;31.00;;
67178;SDS011;54112;53.512;49.144;2022-07-05T07:31:56;31.98;;;30.08;;
67178;SDS011;54112;53.512;49.144;2022-07-05T07:34:23;33.75;;;32.03;;
67178;SDS011;54112;53.512;49.144;2022-07-05T07:36:49;29.17;;;27.60;;
67178;SDS011;54112;53.512;49.144;2022-07-05T07:39:16;33.63;;;31.98;;
67178;SDS011;54112;53.512;49.144;2022-07-05T07:41:42;26.75;;;25.17;;
67178;SDS011;54112;53.512;49.144;2022-07-05T07:44:08;33.63;;;31.70;;
67178;SDS011;54112;53.512;49.144;2022-07-05T07:46:34;32.17;;;30.13;;
67178;SDS011;54112;53.512;49.144;2022-07-05T07:49:00;34.35;;;31.95;;
67178;SDS011;54112;53.512;49.144;2022-07-05T07:51:26;29.25;;;27.25;;
67178;SDS011;54112;53.512;49.144;2022-07-05T07:53:52;30.35;;;28.10;;
67178;SDS011;54112;53.512;49.144;2022-07-05T07:56:18;33.25;;;31.20;;
67178;SDS011;54112;53.512;49.144;2022-07-05T07:58:45;33.03;;;31.20;;
67178;SDS011;54112;53.512;49.144;2022-07-05T08:01:11;28.95;;;26.90;;
67178;SDS011;54112;53.512;49.144;2022-07-05T08:03:39;27.25;;;24.75;;
67178;SDS011;54112;53.512;49.144;2022-07-05T08:06:06;34.17;;;31.65;;
67178;SDS011;54112;53.512;49.144;2022-07-05T08:08:42;32.00;;;30.10;;
67178;SDS011;54112;53.512;49.144;2022-07-05T08:11:10;33.38;;;31.38;;
67178;SDS011;54112;53.512;49.144;2022-07-05T08:13:36;28.75;;;26.95;;
67178;SDS011;54112;53.512;49.144;2022-07-05T08:16:03;34.63;;;32.42;;
67178;SDS011;54112;53.512;49.144;2022-07-05T08:18:29;34.75;;;32.47;;
67178;SDS011;54112;53.512;49.144;2022-07-05T08:21:13;27.58;;;25.48;;
67178;SDS011;54112;53.512;49.144;2022-07-05T08:23:58;29.30;;;26.80;;
67178;SDS011;54112;53.512;49.144;2022-07-05T08:26:25;30.13;;;28.35;;
67178;SDS011;54112;53.512;49.144;2022-07-05T08:28:51;27.88;;;26.10;;
67178;SDS011;54112;53.512;49.144;2022-07-05T08:31:17;35.65;;;33.28;;
67178;SDS011;54112;53.512;49.144;2022-07-05T08:33:44;27.95;;;26.33;;
67178;SDS011;54112;53.512;49.144;2022-07-05T08:36:13;26.25;;;24.55;;
67178;SDS011;54112;53.512;49.144;2022-07-05T08:38:39;29.20;;;27.42;;
67178;SDS011;54112;53.512;49.144;2022-07-05T08:41:06;26.67;;;24.48;;
67178;SDS011;54112;53.512;49.144;2022-07-05T08:43:33;28.23;;;26.08;;
67178;SDS011;54112;53.512;49.144;2022-07-05T08:46:01;30.83;;;28.25;;
67178;SDS011;54112;53.512;49.144;2022-07-05T08:48:28;32.72;;;31.02;;
67178;SDS011;54112;53.512;49.144;2022-07-05T08:50:54;27.63;;;25.65;;
67178;SDS011;54112;53.512;49.144;2022-07-05T08:53:23;31.85;;;29.33;;
67178;SDS011;54112;53.512;49.144;2022-07-05T08:55:50;38.03;;;35.45;;
67178;SDS011;54112;53.512;49.144;2022-07-05T08:58:16;28.38;;;26.55;;
67178;SDS011;54112;53.512;49.144;2022-07-05T09:00:42;28.48;;;26.92;;
67178;SDS011;54112;53.512;49.144;2022-07-05T09:03:09;37.53;;;35.22;;
67178;SDS011;54112;53.512;49.144;2022-07-05T09:05:43;33.35;;;31.42;;
67178;SDS011;54112;53.512;49.144;2022-07-05T09:08:13;35.83;;;33.88;;
67178;SDS011;54112;53.512;49.144;2022-07-05T09:10:39;31.10;;;29.60;;
67178;SDS011;54112;53.512;49.144;2022-07-05T09:13:08;35.60;;;33.83;;
67178;SDS011;54112;53.512;49.144;2022-07-05T09:15:37;35.40;;;33.38;;
67178;SDS011;54112;53.512;49.144;2022-07-05T09:18:03;31.83;;;29.30;;
67178;SDS011;54112;53.512;49.144;2022-07-05T09:20:29;27.55;;;25.77;;
67178;SDS011;54112;53.512;49.144;2022-07-05T09:22:55;33.83;;;31.77;;
67178;SDS011;54112;53.512;49.144;2022-07-05T09:27:49;29.80;;;28.25;;
67178;SDS011;54112;53.512;49.144;2022-07-05T09:33:09;35.55;;;33.35;;
67178;SDS011;54112;53.512;49.144;2022-07-05T09:35:36;28.42;;;27.02;;
67178;SDS011;54112;53.512;49.144;2022-07-05T09:38:03;33.53;;;31.25;;
67178;SDS011;54112;53.512;49.144;2022-07-05T09:40:30;37.38;;;35.00;;
67178;SDS011;54112;53.512;49.144;2022-07-05T09:43:10;30.63;;;28.85;;
67178;SDS011;54112;53.512;49.144;2022-07-05T09:45:36;28.98;;;26.80;;
67178;SDS011;54112;53.512;49.144;2022-07-05T09:48:03;38.00;;;35.15;;
67178;SDS011;54112;53.512;49.144;2022-07-05T09:50:36;37.72;;;35.13;;
67178;SDS011;54112;53.512;49.144;2022-07-05T09:53:02;29.95;;;28.15;;
67178;SDS011;54112;53.512;49.144;2022-07-05T09:55:28;37.40;;;35.13;;
67178;SDS011;54112;53.512;49.144;2022-07-05T09:57:54;37.10;;;35.40;;
67178;SDS011;54112;53.512;49.144;2022-07-05T10:00:21;35.95;;;33.85;;
67178;SDS011;54112;53.512;49.144;2022-07-05T10:02:52;26.40;;;25.20;;
67178;SDS011;54112;53.512;49.144;2022-07-05T10:05:18;35.60;;;33.92;;
67178;SDS011;54112;53.512;49.144;2022-07-05T10:07:49;36.85;;;35.15;;
67178;SDS011;54112;53.512;49.144;2022-07-05T10:10:17;35.75;;;33.67;;
67178;SDS011;54112;53.512;49.144;2022-07-05T10:12:44;29.90;;;27.80;;
67178;SDS011;54112;53.512;49.144;2022-07-05T10:15:11;36.65;;;34.58;;
67178;SDS011;54112;53.512;49.144;2022-07-05T10:17:50;35.72;;;33.10;;
67178;SDS011;54112;53.512;49.144;2022-07-05T10:22:47;36.20;;;34.00;;
67178;SDS011;54112;53.512;49.144;2022-07-05T10:25:13;36.65;;;34.72;;
67178;SDS011;54112;53.512;49.144;2022-07-05T10:27:39;36.80;;;34.83;;
67178;SDS011;54112;53.512;49.144;2022-07-05T10:30:06;32.10;;;29.85;;
67178;SDS011;54112;53.512;49.144;2022-07-05T10:32:33;35.90;;;34.25;;
67178;SDS011;54112;53.512;49.144;2022-07-05T10:34:59;37.35;;;35.13;;
67178;SDS011;54112;53.512;49.144;2022-07-05T10:37:27;28.98;;;27.25;;
67178;SDS011;54112;53.512;49.144;2022-07-05T10:39:57;31.77;;;29.90;;
67178;SDS011;54112;53.512;49.144;2022-07-05T10:42:24;30.42;;;29.02;;
67178;SDS011;54112;53.512;49.144;2022-07-05T10:44:51;32.67;;;30.75;;
67178;SDS011;54112;53.512;49.144;2022-07-05T10:47:17;34.28;;;31.70;;
67178;SDS011;54112;53.512;49.144;2022-07-05T10:49:47;31.65;;;29.55;;
67178;SDS011;54112;53.512;49.144;2022-07-05T10:52:24;36.83;;;34.70;;
67178;SDS011;54112;53.512;49.144;2022-07-05T10:57:35;37.38;;;35.72;;
67178;SDS011;54112;53.512;49.144;2022-07-05T11:00:05;42.08;;;39.55;;
67178;SDS011;54112;53.512;49.144;2022-07-05T11:02:32;35.30;;;33.30;;
67178;SDS011;54112;53.512;49.144;2022-07-05T11:04:58;42.47;;;39.25;;
67178;SDS011;54112;53.512;49.144;2022-07-05T11:10:15;67.40;;;63.65;;
67178;SDS011;54112;53.512;49.144;2022-07-05T11:12:46;65.38;;;61.20;;
67178;SDS011;54112;53.512;49.144;2022-07-05T11:15:12;63.28;;;60.28;;
67178;SDS011;54112;53.512;49.144;2022-07-05T11:17:39;61.60;;;58.47;;
67178;SDS011;54112;53.512;49.144;2022-07-05T11:20:10;62.33;;;59.20;;
67178;SDS011;54112;53.512;49.144;2022-07-05T11:22:37;60.00;;;57.08;;
67178;SDS011;54112;53.512;49.144;2022-07-05T11:25:04;67.57;;;64.45;;
67178;SDS011;54112;53.512;49.144;2022-07-05T11:27:30;72.03;;;68.03;;
67178;SDS011;54112;53.512;49.144;2022-07-05T11:29:59;64.80;;;61.17;;
67178;SDS011;54112;53.512;49.144;2022-07-05T11:34:55;64.30;;;60.88;;
67178;SDS011;54112;53.512;49.144;2022-07-05T11:37:24;68.85;;;65.22;;
67178;SDS011;54112;53.512;49.144;2022-07-05T11:42:46;65.60;;;60.92;;
67178;SDS011;54112;53.512;49.144;2022-07-05T11:45:12;68.95;;;65.45;;
67178;SDS011;54112;53.512;49.144;2022-07-05T11:47:38;62.72;;;59.08;;
67178;SDS011;54112;53.512;49.144;2022-07-05T11:50:04;61.75;;;57.90;;
67178;SDS011;54112;53.512;49.144;2022-07-05T11:52:31;72.80;;;69.47;;
67178;SDS011;54112;53.512;49.144;2022-07-05T11:54:57;69.05;;;65.72;;
67178;SDS011;54112;53.512;49.144;2022-07-05T11:57:24;60.47;;;57.50;;
67178;SDS011;54112;53.512;49.144;2022-07-05T11:59:52;57.15;;;54.33;;
67178;SDS011;54112;53.512;49.144;2022-07-05T12:02:18;59.83;;;56.88;;
67178;SDS011;54112;53.512;49.144;2022-07-05T12:04:48;72.63;;;68.75;;
67178;SDS011;54112;53.512;49.144;2022-07-05T12:07:27;60.42;;;57.25;;
67178;SDS011;54112;53.512;49.144;2022-07-05T12:09:54;58.70;;;55.97;;
67178;SDS011;54112;53.512;49.144;2022-07-05T12:12:38;63.83;;;59.63;;
67178;SDS011;54112;53.512;49.144;2022-07-05T12:15:11;69.18;;;65.22;;
67178;SDS011;54112;53.512;49.144;2022-07-05T12:17:38;73.25;;;69.00;;
67178;SDS011;54112;53.512;49.144;2022-07-05T12:20:04;67.30;;;63.35;;
67178;SDS011;54112;53.512;49.144;2022-07-05T12:22:31;67.80;;;64.72;;
67178;SDS011;54112;53.512;49.144;2022-07-05T12:24:58;59.58;;;56.53;;
67178;SDS011;54112;53.512;49.144;2022-07-05T12:27:27;60.78;;;57.72;;
67178;SDS011;54112;53.512;49.144;2022-07-05T12:29:57;72.90;;;69.05;;
67178;SDS011;54112;53.512;49.144;2022-07-05T12:32:23;61.00;;;57.70;;
67178;SDS011;54112;53.512;49.144;2022-07-05T12:34:49;71.95;;;67.75;;
67178;SDS011;54112;53.512;49.144;2022-07-05T12:37:24;66.28;;;62.33;;
67178;SDS011;54112;53.512;49.144;2022-07-05T12:40:02;60.35;;;57.15;;
67178;SDS011;54112;53.512;49.144;2022-07-05T12:42:38;64.18;;;60.78;;
67178;SDS011;54112;53.512;49.144;2022-07-05T12:45:11;64.03;;;60.83;;
67178;SDS011;54112;53.512;49.144;2022-07-05T12:47:50;70.30;;;66.57;;
67178;SDS011;54112;53.512;49.144;2022-07-05T12:50:19;73.38;;;69.00;;
67178;SDS011;54112;53.512;49.144;2022-07-05T12:55:33;58.80;;;56.10;;
67178;SDS011;54112;53.512;49.144;2022-07-05T12:58:17;59.97;;;56.10;;
67178;SDS011;54112;53.512;49.144;2022-07-05T13:00:43;61.65;;;57.58;;
67178;SDS011;54112;53.512;49.144;2022-07-05T13:03:12;64.95;;;61.40;;
67178;SDS011;54112;53.512;49.144;2022-07-05T13:05:38;71.10;;;67.28;;
67178;SDS011;54112;53.512;49.144;2022-07-05T13:08:04;65.72;;;61.85;;
67178;SDS011;54112;53.512;49.144;2022-07-05T13:10:30;67.05;;;64.07;;
67178;SDS011;54112;53.512;49.144;2022-07-05T13:12:59;68.57;;;65.00;;
67178;SDS011;54112;53.512;49.144;2022-07-05T13:15:25;65.22;;;61.38;;
67178;SDS011;54112;53.512;49.144;2022-07-05T13:17:51;61.05;;;57.40;;
67178;SDS011;54112;53.512;49.144;2022-07-05T13:20:17;72.60;;;68.05;;
67178;SDS011;54112;53.512;49.144;2022-07-05T13:22:45;69.97;;;66.00;;
67178;SDS011;54112;53.512;49.144;2022-07-05T13:25:11;62.72;;;59.55;;
67178;SDS011;54112;53.512;49.144;2022-07-05T13:27:38;74.40;;;70.45;;
67178;SDS011;54112;53.512;49.144;2022-07-05T13:30:04;72.38;;;68.20;;
67178;SDS011;54112;53.512;49.144;2022-07-05T13:32:30;67.00;;;63.80;;
67178;SDS011;54112;53.512;49.144;2022-07-05T13:34:57;72.03;;;67.75;;
67178;SDS011;54112;53.512;49.144;2022-07-05T13:37:23;65.28;;;61.90;;
67178;SDS011;54112;53.512;49.144;2022-07-05T13:39:49;70.25;;;65.22;;
67178;SDS011;54112;53.512;49.144;2022-07-05T13:42:15;66.60;;;63.33;;
67178;SDS011;54112;53.512;49.144;2022-07-05T13:44:43;64.80;;;61.80;;
67178;SDS011;54112;53.512;49.144;2022-07-05T13:47:10;70.68;;;66.97;;
67178;SDS011;54112;53.512;49.144;2022-07-05T13:49:36;71.75;;;67.25;;
67178;SDS011;54112;53.512;49.144;2022-07-05T13:52:05;68.30;;;64.10;;
67178;SDS011;54112;53.512;49.144;2022-07-05T13:54:31;68.18;;;64.35;;
67178;SDS011;54112;53.512;49.144;2022-07-05T13:56:57;68.78;;;65.18;;
67178;SDS011;54112;53.512;49.144;2022-07-05T13:59:23;71.35;;;67.40;;
67178;SDS011;54112;53.512;49.144;2022-07-05T14:01:49;69.70;;;66.22;;
67178;SDS011;54112;53.512;49.144;2022-07-05T14:04:15;67.32;;;64.47;;
67178;SDS011;54112;53.512;49.144;2022-07-05T14:06:40;62.60;;;59.58;;
67178;SDS011;54112;53.512;49.144;2022-07-05T14:09:06;60.83;;;58.00;;
67178;SDS011;54112;53.512;49.144;2022-07-05T14:11:33;69.32;;;65.65;;
67178;SDS011;54112;53.512;49.144;2022-07-05T14:13:59;66.63;;;63.50;;
67178;SDS011;54112;53.512;49.144;2022-07-05T14:16:25;67.65;;;64.63;;
67178;SDS011;54112;53.512;49.144;2022-07-05T14:18:51;64.60;;;61.20;;
67178;SDS011;54112;53.512;49.144;2022-07-05T14:21:18;59.33;;;56.60;;
67178;SDS011;54112;53.512;49.144;2022-07-05T14:23:44;58.55;;;55.33;;
67178;SDS011;54112;53.512;49.144;2022-07-05T14:26:16;67.68;;;63.53;;
67178;SDS011;54112;53.512;49.144;2022-07-05T14:28:42;65.97;;;62.00;;
67178;SDS011;54112;53.512;49.144;2022-07-05T14:31:09;72.05;;;68.65;;
67178;SDS011;54112;53.512;49.144;2022-07-05T14:33:35;62.63;;;59.60;;